Time,TemperatureF,DewpointF,PressureIn,WindDirection,WindDirectionDegrees,WindSpeedMPH,WindSpeedGustMPH,Humidity,HourlyPrecipIn,Conditions,Clouds,dailyrainin,SoftwareType,DateUTC
2013-01-30 00:00:00,41.5,39.1,30.09,NNE,18,0.0,2.0,91,0.00,,CLR,0.00,VWS V14.00,2013-01-30 05:00:00,
2013-01-30 00:01:00,41.5,39.1,30.09,NNE,18,0.0,2.0,91,0.00,,,0.00,VWS V14.00,2013-01-30 05:01:00,
2013-01-30 00:03:00,41.5,39.1,30.09,NNE,18,0.0,1.0,91,0.00,,,0.00,VWS V14.00,2013-01-30 05:03:00,
2013-01-30 00:05:00,41.5,39.3,30.08,NNE,17,0.0,1.0,92,0.00,,,0.00,VWS V14.00,2013-01-30 05:05:00,
2013-01-30 00:07:00,41.5,39.1,30.08,NNE,18,0.0,1.0,91,0.00,,,0.00,VWS V14.00,2013-01-30 05:07:00,
2013-01-30 00:12:00,41.4,39.0,30.08,NNE,18,1.0,1.0,91,0.00,,,0.00,VWS V14.00,2013-01-30 05:12:00,
2013-01-30 00:17:00,41.4,39.0,30.08,NNE,18,0.0,1.0,91,0.00,,,0.00,VWS V14.00,2013-01-30 05:17:00,
2013-01-30 00:22:00,41.4,39.2,30.08,NNE,15,1.0,1.0,92,0.00,,,0.00,VWS V14.00,2013-01-30 05:22:00,
2013-01-30 00:28:00,41.3,39.2,30.07,NNE,18,0.0,2.0,92,0.00,,,0.00,VWS V14.00,2013-01-30 05:28:00,
2013-01-30 00:30:00,41.3,39.2,30.07,NNE,18,1.0,2.0,92,0.00,,CLR,0.00,VWS V14.00,2013-01-30 05:30:00,
2013-01-30 00:33:00,41.4,39.2,30.07,NNW,341,0.0,1.0,92,0.00,,,0.00,VWS V14.00,2013-01-30 05:33:00,
2013-01-30 00:38:00,41.4,39.2,30.07,NNE,13,0.0,2.0,92,0.00,,,0.00,VWS V14.00,2013-01-30 05:38:00,
2013-01-30 00:43:00,41.5,39.3,30.06,NNE,16,0.0,2.0,92,0.00,,,0.00,VWS V14.00,2013-01-30 05:43:00,
2013-01-30 00:48:00,41.6,39.5,30.05,NNE,16,1.0,2.0,92,0.00,,,0.00,VWS V14.00,2013-01-30 05:48:00,
2013-01-30 00:53:00,41.5,39.3,30.05,NNE,19,1.0,3.0,92,0.00,,,0.00,VWS V14.00,2013-01-30 05:53:00,
2013-01-30 00:58:00,41.4,39.2,30.05,NNE,15,1.0,3.0,92,0.00,,,0.00,VWS V14.00,2013-01-30 05:58:00,
2013-01-30 01:00:00,41.5,39.3,30.05,North,11,1.0,3.0,92,0.00,,CLR,0.00,VWS V14.00,2013-01-30 06:00:00,
2013-01-30 01:03:00,41.4,39.2,30.05,North,11,1.0,2.0,92,0.00,,,0.00,VWS V14.00,2013-01-30 06:03:00,
2013-01-30 01:08:00,41.4,39.5,30.04,NNE,19,0.0,3.0,93,0.00,,,0.00,VWS V14.00,2013-01-30 06:08:00,
2013-01-30 01:13:00,41.3,39.4,30.04,NNE,17,2.0,3.0,93,0.00,,,0.00,VWS V14.00,2013-01-30 06:13:00,
2013-01-30 01:18:00,41.3,39.4,30.04,NNE,20,1.0,3.0,93,0.00,,,0.00,VWS V14.00,2013-01-30 06:18:00,
2013-01-30 01:23:00,41.2,39.3,30.03,North,9,1.0,3.0,93,0.00,,,0.00,VWS V14.00,2013-01-30 06:23:00,
2013-01-30 01:28:00,41.2,39.6,30.03,North,11,0.0,3.0,94,0.00,,,0.00,VWS V14.00,2013-01-30 06:28:00,
2013-01-30 01:30:00,41.2,39.6,30.03,North,11,0.0,3.0,94,0.00,,CLR,0.00,VWS V14.00,2013-01-30 06:30:00,
2013-01-30 01:34:00,41.1,39.2,30.03,NNE,15,0.0,2.0,93,0.00,,,0.00,VWS V14.00,2013-01-30 06:34:00,
2013-01-30 01:39:00,41.1,39.5,30.03,North,8,1.0,2.0,94,0.00,,,0.00,VWS V14.00,2013-01-30 06:39:00,
2013-01-30 01:44:00,41.1,39.5,30.03,North,8,0.0,2.0,94,0.00,,,0.00,VWS V14.00,2013-01-30 06:44:00,
2013-01-30 01:49:00,41.1,39.5,30.03,North,8,0.0,2.0,94,0.00,,,0.00,VWS V14.00,2013-01-30 06:49:00,
2013-01-30 01:54:00,41.1,39.5,30.02,North,8,0.0,2.0,94,0.00,,,0.00,VWS V14.00,2013-01-30 06:54:00,
2013-01-30 01:59:00,41.0,39.4,30.02,North,8,0.0,2.0,94,0.00,,,0.00,VWS V14.00,2013-01-30 06:59:00,
2013-01-30 02:00:00,41.0,39.4,30.02,North,8,0.0,2.0,94,0.00,,CLR,0.00,VWS V14.00,2013-01-30 07:00:00,
2013-01-30 02:04:00,40.9,39.3,30.02,North,7,0.0,1.0,94,0.00,,,0.00,VWS V14.00,2013-01-30 07:04:00,
2013-01-30 02:09:00,40.9,39.3,30.01,North,8,1.0,2.0,94,0.00,,,0.00,VWS V14.00,2013-01-30 07:09:00,
2013-01-30 02:14:00,40.9,39.3,30.02,North,7,1.0,2.0,94,0.00,,,0.00,VWS V14.00,2013-01-30 07:14:00,
2013-01-30 02:20:00,41.0,39.4,30.01,North,8,1.0,2.0,94,0.00,,,0.00,VWS V14.00,2013-01-30 07:20:00,
2013-01-30 02:25:00,41.1,39.8,30.02,NNE,18,0.0,2.0,95,0.00,,,0.00,VWS V14.00,2013-01-30 07:25:00,
2013-01-30 02:30:00,41.1,39.8,30.01,NNE,18,2.0,2.0,95,0.00,,,0.00,VWS V14.00,2013-01-30 07:30:00,
2013-01-30 02:35:00,41.1,39.8,30.01,NNE,15,0.0,2.0,95,0.00,,,0.00,VWS V14.00,2013-01-30 07:35:00,
2013-01-30 02:40:00,41.2,39.9,30.01,North,6,1.0,2.0,95,0.00,,,0.00,VWS V14.00,2013-01-30 07:40:00,
2013-01-30 02:45:00,41.2,39.9,30.00,North,11,0.0,2.0,95,0.00,,,0.00,VWS V14.00,2013-01-30 07:45:00,
2013-01-30 02:50:00,41.2,39.9,30.00,North,11,0.0,2.0,95,0.00,,,0.00,VWS V14.00,2013-01-30 07:50:00,
2013-01-30 02:55:00,41.2,39.9,30.00,North,11,0.0,2.0,95,0.00,,,0.00,VWS V14.00,2013-01-30 07:55:00,
2013-01-30 03:00:00,41.2,39.9,30.00,North,4,0.0,1.0,95,0.00,,,0.00,VWS V14.00,2013-01-30 08:00:00,
2013-01-30 03:05:00,41.1,39.8,30.00,North,4,0.0,1.0,95,0.00,,,0.00,VWS V14.00,2013-01-30 08:05:00,
2013-01-30 03:10:00,41.2,39.9,30.00,North,4,1.0,3.0,95,0.00,,,0.00,VWS V14.00,2013-01-30 08:10:00,
2013-01-30 03:15:00,41.2,39.9,30.00,North,8,0.0,3.0,95,0.00,,,0.00,VWS V14.00,2013-01-30 08:15:00,
2013-01-30 03:20:00,41.1,39.8,29.99,NNE,22,1.0,3.0,95,0.00,,,0.00,VWS V14.00,2013-01-30 08:20:00,
2013-01-30 03:25:00,41.1,39.8,29.99,North,1,0.0,3.0,95,0.00,,,0.00,VWS V14.00,2013-01-30 08:25:00,
2013-01-30 03:30:00,41.1,39.8,29.98,North,4,0.0,1.0,95,0.00,,,0.00,VWS V14.00,2013-01-30 08:30:00,
2013-01-30 03:35:00,41.2,39.9,29.97,NNE,14,0.0,1.0,95,0.00,,,0.00,VWS V14.00,2013-01-30 08:35:00,
2013-01-30 03:41:00,41.1,39.8,29.97,NNE,30,1.0,2.0,95,0.00,,,0.00,VWS V14.00,2013-01-30 08:41:00,
2013-01-30 03:46:00,41.1,39.8,29.97,NNE,28,0.0,2.0,95,0.00,,,0.00,VWS V14.00,2013-01-30 08:46:00,
2013-01-30 03:51:00,41.1,39.8,29.97,NNE,29,0.0,2.0,95,0.00,,,0.00,VWS V14.00,2013-01-30 08:51:00,
2013-01-30 03:56:00,41.2,39.9,29.97,NNE,29,0.0,2.0,95,0.00,,,0.00,VWS V14.00,2013-01-30 08:56:00,
2013-01-30 04:00:00,41.1,39.8,29.97,NNE,28,0.0,2.0,95,0.00,,CLR,0.00,VWS V14.00,2013-01-30 09:00:00,
2013-01-30 04:01:00,41.1,39.8,29.97,NNE,29,0.0,0.0,95,0.00,,,0.00,VWS V14.00,2013-01-30 09:01:00,
2013-01-30 04:06:00,41.2,39.9,29.96,NNE,29,0.0,0.0,95,0.00,,,0.00,VWS V14.00,2013-01-30 09:06:00,
2013-01-30 04:11:00,41.1,39.8,29.96,NNE,28,0.0,0.0,95,0.00,,,0.00,VWS V14.00,2013-01-30 09:11:00,
2013-01-30 04:16:00,41.0,39.7,29.95,NNE,30,0.0,0.0,95,0.00,,,0.00,VWS V14.00,2013-01-30 09:16:00,
2013-01-30 04:21:00,41.1,39.8,29.95,NNE,30,0.0,0.0,95,0.00,,,0.00,VWS V14.00,2013-01-30 09:21:00,
2013-01-30 04:26:00,41.1,39.8,29.95,NNE,28,0.0,0.0,95,0.00,,,0.00,VWS V14.00,2013-01-30 09:26:00,
2013-01-30 04:30:00,41.1,39.8,29.95,NNE,29,0.0,0.0,95,0.00,,CLR,0.00,VWS V14.00,2013-01-30 09:30:00,
2013-01-30 04:31:00,41.1,39.8,29.95,NNE,29,0.0,0.0,95,0.00,,,0.00,VWS V14.00,2013-01-30 09:31:00,
2013-01-30 04:36:00,41.0,39.7,29.94,NNE,30,0.0,0.0,95,0.00,,,0.00,VWS V14.00,2013-01-30 09:36:00,
2013-01-30 04:41:00,40.9,39.6,29.94,NNE,28,0.0,0.0,95,0.00,,,0.00,VWS V14.00,2013-01-30 09:41:00,
2013-01-30 04:46:00,40.9,39.6,29.94,NNE,29,0.0,0.0,95,0.00,,,0.00,VWS V14.00,2013-01-30 09:46:00,
2013-01-30 04:51:00,40.9,39.6,29.94,NNE,30,0.0,1.0,95,0.00,,,0.00,VWS V14.00,2013-01-30 09:51:00,
2013-01-30 04:56:00,40.9,39.6,29.94,NNE,29,1.0,1.0,95,0.00,,,0.00,VWS V14.00,2013-01-30 09:56:00,
2013-01-30 05:00:00,40.8,39.5,29.94,NNE,29,0.0,1.0,95,0.00,,CLR,0.00,VWS V14.00,2013-01-30 10:00:00,
2013-01-30 05:02:00,40.8,39.5,29.94,NNE,29,0.0,1.0,95,0.00,,,0.00,VWS V14.00,2013-01-30 10:02:00,
2013-01-30 05:07:00,40.8,39.5,29.94,NNE,29,1.0,1.0,95,0.00,,,0.00,VWS V14.00,2013-01-30 10:07:00,
2013-01-30 05:12:00,40.8,39.5,29.94,NNE,29,1.0,2.0,95,0.00,,,0.00,VWS V14.00,2013-01-30 10:12:00,
2013-01-30 05:17:00,40.8,39.5,29.95,NNW,342,1.0,2.0,95,0.00,,,0.00,VWS V14.00,2013-01-30 10:17:00,
2013-01-30 05:22:00,41.0,39.7,29.95,North,8,1.0,2.0,95,0.00,,,0.00,VWS V14.00,2013-01-30 10:22:00,
2013-01-30 05:27:00,41.3,40.0,29.94,North,9,1.0,2.0,95,0.00,,,0.00,VWS V14.00,2013-01-30 10:27:00,
2013-01-30 05:30:00,41.2,39.9,29.94,North,9,0.0,2.0,95,0.00,,CLR,0.00,VWS V14.00,2013-01-30 10:30:00,
2013-01-30 05:32:00,41.1,39.8,29.94,North,9,0.0,1.0,95,0.00,,,0.00,VWS V14.00,2013-01-30 10:32:00,
2013-01-30 05:37:00,41.1,39.8,29.94,North,8,0.0,2.0,95,0.00,,,0.00,VWS V14.00,2013-01-30 10:37:00,
2013-01-30 05:42:00,41.2,39.9,29.93,North,8,1.0,2.0,95,0.00,,,0.00,VWS V14.00,2013-01-30 10:42:00,
2013-01-30 05:47:00,41.2,39.9,29.94,NNE,13,1.0,2.0,95,0.00,,,0.00,VWS V14.00,2013-01-30 10:47:00,
2013-01-30 05:52:00,41.4,40.1,29.93,NNE,13,0.0,2.0,95,0.00,,,0.00,VWS V14.00,2013-01-30 10:52:00,
2013-01-30 05:57:00,41.4,40.1,29.93,NNE,13,0.0,2.0,95,0.00,,,0.00,VWS V14.00,2013-01-30 10:57:00,
2013-01-30 06:00:00,41.3,40.0,29.93,NNE,13,1.0,2.0,95,0.00,,CLR,0.00,VWS V14.00,2013-01-30 11:00:00,
2013-01-30 06:02:00,41.2,39.9,29.93,NNE,15,0.0,2.0,95,0.00,,,0.00,VWS V14.00,2013-01-30 11:02:00,
2013-01-30 06:07:00,41.2,39.9,29.93,NNE,20,0.0,2.0,95,0.00,,,0.00,VWS V14.00,2013-01-30 11:07:00,
2013-01-30 06:12:00,41.3,40.0,29.93,NNE,20,0.0,2.0,95,0.00,,,0.00,VWS V14.00,2013-01-30 11:12:00,
2013-01-30 06:17:00,41.3,40.0,29.92,NNE,20,1.0,2.0,95,0.00,,,0.00,VWS V14.00,2013-01-30 11:17:00,
2013-01-30 06:22:00,41.3,40.0,29.92,NNE,20,0.0,2.0,95,0.00,,,0.00,VWS V14.00,2013-01-30 11:22:00,
2013-01-30 06:27:00,41.4,40.1,29.92,NNE,20,0.0,2.0,95,0.00,,,0.00,VWS V14.00,2013-01-30 11:27:00,
2013-01-30 06:30:00,41.3,40.0,29.92,NNE,20,0.0,2.0,95,0.00,,CLR,0.00,VWS V14.00,2013-01-30 11:30:00,
2013-01-30 06:33:00,41.3,40.0,29.92,NNE,20,0.0,1.0,95,0.00,,,0.00,VWS V14.00,2013-01-30 11:33:00,
2013-01-30 06:38:00,41.3,40.0,29.92,WNW,302,0.0,1.0,95,0.00,,,0.00,VWS V14.00,2013-01-30 11:38:00,
2013-01-30 06:43:00,41.3,40.0,29.91,NNE,20,0.0,1.0,95,0.00,,,0.00,VWS V14.00,2013-01-30 11:43:00,
2013-01-30 06:48:00,41.3,40.0,29.91,NNE,20,0.0,1.0,95,0.00,,,0.00,VWS V14.00,2013-01-30 11:48:00,
2013-01-30 06:53:00,41.4,40.1,29.91,West,262,1.0,1.0,95,0.00,,,0.00,VWS V14.00,2013-01-30 11:53:00,
2013-01-30 06:58:00,41.4,40.3,29.91,WNW,293,0.0,1.0,96,0.00,,,0.00,VWS V14.00,2013-01-30 11:58:00,
2013-01-30 07:00:00,41.4,40.3,29.91,WNW,293,0.0,1.0,96,0.00,,CLR,0.00,VWS V14.00,2013-01-30 12:00:00,
2013-01-30 07:03:00,41.5,40.5,29.91,WNW,292,0.0,0.0,96,0.00,,,0.00,VWS V14.00,2013-01-30 12:03:00,
2013-01-30 07:08:00,41.4,40.3,29.91,WNW,293,0.0,0.0,96,0.00,,,0.00,VWS V14.00,2013-01-30 12:08:00,
2013-01-30 07:13:00,41.4,40.3,29.90,WNW,293,0.0,0.0,96,0.00,,,0.00,VWS V14.00,2013-01-30 12:13:00,
2013-01-30 07:18:00,41.5,40.5,29.90,WNW,293,1.0,1.0,96,0.00,,,0.00,VWS V14.00,2013-01-30 12:18:00,
2013-01-30 07:23:00,41.5,40.5,29.90,WNW,293,0.0,1.0,96,0.00,,,0.00,VWS V14.00,2013-01-30 12:23:00,
2013-01-30 07:28:00,41.4,40.3,29.90,WNW,293,0.0,1.0,96,0.00,,,0.00,VWS V14.00,2013-01-30 12:28:00,
2013-01-30 07:30:00,41.4,40.3,29.89,WNW,293,0.0,1.0,96,0.00,,CLR,0.00,VWS V14.00,2013-01-30 12:30:00,
2013-01-30 07:33:00,41.6,40.5,29.89,WNW,293,0.0,1.0,96,0.00,,,0.00,VWS V14.00,2013-01-30 12:33:00,
2013-01-30 07:38:00,41.9,40.8,29.89,WNW,292,0.0,1.0,96,0.00,,,0.00,VWS V14.00,2013-01-30 12:38:00,
2013-01-30 07:43:00,42.0,40.9,29.89,WNW,293,0.0,1.0,96,0.00,,,0.00,VWS V14.00,2013-01-30 12:43:00,
2013-01-30 07:48:00,42.1,41.0,29.89,WNW,292,0.0,1.0,96,0.00,,,0.00,VWS V14.00,2013-01-30 12:48:00,
2013-01-30 07:53:00,42.2,41.1,29.88,WNW,293,0.0,1.0,96,0.00,,,0.00,VWS V14.00,2013-01-30 12:53:00,
2013-01-30 07:59:00,42.2,41.1,29.88,North,5,0.0,1.0,96,0.00,,,0.00,VWS V14.00,2013-01-30 12:59:00,
2013-01-30 08:00:00,42.2,41.1,29.88,North,5,0.0,1.0,96,0.00,,CLR,0.00,VWS V14.00,2013-01-30 13:00:00,
2013-01-30 08:04:00,42.4,41.3,29.87,NNE,26,0.0,0.0,96,0.00,,,0.00,VWS V14.00,2013-01-30 13:04:00,
2013-01-30 08:09:00,42.5,41.4,29.87,NNE,26,0.0,0.0,96,0.00,,,0.00,VWS V14.00,2013-01-30 13:09:00,
2013-01-30 08:14:00,42.5,41.4,29.87,NNE,25,0.0,0.0,96,0.00,,,0.00,VWS V14.00,2013-01-30 13:14:00,
2013-01-30 08:19:00,42.7,41.6,29.86,NNE,25,0.0,0.0,96,0.00,,,0.00,VWS V14.00,2013-01-30 13:19:00,
2013-01-30 08:24:00,42.7,41.6,29.86,NNE,25,0.0,0.0,96,0.00,,,0.00,VWS V14.00,2013-01-30 13:24:00,
2013-01-30 08:29:00,42.7,41.6,29.87,NNE,15,0.0,0.0,96,0.00,,,0.00,VWS V14.00,2013-01-30 13:29:00,
2013-01-30 08:30:00,42.7,41.6,29.87,NNE,14,0.0,0.0,96,0.00,,CLR,0.00,VWS V14.00,2013-01-30 13:30:00,
2013-01-30 08:34:00,43.0,41.9,29.86,NNE,13,0.0,0.0,96,0.00,,,0.00,VWS V14.00,2013-01-30 13:34:00,
2013-01-30 08:39:00,43.4,42.3,29.86,NNE,32,0.0,0.0,96,0.00,,,0.00,VWS V14.00,2013-01-30 13:39:00,
2013-01-30 08:44:00,43.8,42.7,29.86,NNE,13,0.0,2.0,96,0.00,,,0.00,VWS V14.00,2013-01-30 13:44:00,
2013-01-30 08:49:00,43.9,42.8,29.85,North,11,0.0,3.0,96,0.00,,,0.00,VWS V14.00,2013-01-30 13:49:00,
2013-01-30 08:54:00,44.1,43.0,29.85,NNE,26,2.0,3.0,96,0.00,,,0.00,VWS V14.00,2013-01-30 13:54:00,
2013-01-30 08:59:00,44.2,43.1,29.85,NE,39,1.0,3.0,96,0.00,,,0.00,VWS V14.00,2013-01-30 13:59:00,
2013-01-30 09:00:00,44.2,43.1,29.85,NE,39,1.0,3.0,96,0.00,,CLR,0.00,VWS V14.00,2013-01-30 14:00:00,
2013-01-30 09:04:00,44.4,43.3,29.85,NE,39,1.0,1.0,96,0.00,,,0.00,VWS V14.00,2013-01-30 14:04:00,
2013-01-30 09:09:00,44.6,43.5,29.85,NNE,27,2.0,2.0,96,0.00,,,0.00,VWS V14.00,2013-01-30 14:09:00,
2013-01-30 09:15:00,44.8,43.7,29.85,NNE,19,0.0,2.0,96,0.00,,,0.00,VWS V14.00,2013-01-30 14:15:00,
2013-01-30 09:20:00,44.8,43.7,29.84,North,11,2.0,2.0,96,0.00,,,0.00,VWS V14.00,2013-01-30 14:20:00,
2013-01-30 09:25:00,44.9,43.8,29.84,NNE,18,0.0,2.0,96,0.00,,,0.00,VWS V14.00,2013-01-30 14:25:00,
2013-01-30 09:30:00,45.3,44.2,29.84,NNE,17,0.0,1.0,96,0.00,,,0.00,VWS V14.00,2013-01-30 14:30:00,
2013-01-30 09:35:00,45.7,44.6,29.84,NNE,18,0.0,1.0,96,0.00,,,0.00,VWS V14.00,2013-01-30 14:35:00,
2013-01-30 09:40:00,45.8,44.7,29.84,NNE,18,0.0,1.0,96,0.00,,,0.00,VWS V14.00,2013-01-30 14:40:00,
2013-01-30 09:45:00,46.3,45.2,29.83,NNE,18,0.0,1.0,96,0.00,,,0.00,VWS V14.00,2013-01-30 14:45:00,
2013-01-30 09:50:00,46.7,45.6,29.83,NNE,18,0.0,1.0,96,0.00,,,0.00,VWS V14.00,2013-01-30 14:50:00,
2013-01-30 09:55:00,46.7,45.6,29.83,NE,52,1.0,1.0,96,0.00,,,0.00,VWS V14.00,2013-01-30 14:55:00,
2013-01-30 10:00:00,46.8,45.7,29.82,SE,142,0.0,0.0,96,0.00,,,0.00,VWS V14.00,2013-01-30 15:00:00,
2013-01-30 10:05:00,46.9,45.8,29.81,ESE,117,1.0,2.0,96,0.00,,,0.00,VWS V14.00,2013-01-30 15:05:00,
2013-01-30 10:10:00,47.2,46.1,29.81,ESE,117,0.0,2.0,96,0.00,,,0.00,VWS V14.00,2013-01-30 15:10:00,
2013-01-30 10:15:00,47.5,46.4,29.82,SE,127,0.0,2.0,96,0.00,,,0.00,VWS V14.00,2013-01-30 15:15:00,
2013-01-30 10:20:00,48.1,47.0,29.81,NNE,26,0.0,2.0,96,0.00,,,0.00,VWS V14.00,2013-01-30 15:20:00,
2013-01-30 10:25:00,48.2,47.1,29.81,North,355,0.0,2.0,96,0.00,,,0.00,VWS V14.00,2013-01-30 15:25:00,
2013-01-30 10:30:00,48.5,47.4,29.80,North,359,1.0,2.0,96,0.00,,CLR,0.00,VWS V14.00,2013-01-30 15:30:00,
2013-01-30 10:31:00,48.6,47.5,29.80,North,360,0.0,1.0,96,0.00,,,0.00,VWS V14.00,2013-01-30 15:31:00,
2013-01-30 10:36:00,48.9,47.8,29.80,NNW,341,0.0,2.0,96,0.00,,,0.00,VWS V14.00,2013-01-30 15:36:00,
2013-01-30 10:41:00,49.4,48.3,29.80,North,4,1.0,2.0,96,0.00,,,0.00,VWS V14.00,2013-01-30 15:41:00,
2013-01-30 10:46:00,49.7,48.6,29.80,North,6,0.0,2.0,96,0.00,,,0.00,VWS V14.00,2013-01-30 15:46:00,
2013-01-30 10:51:00,49.7,48.6,29.80,NE,56,0.0,2.0,96,0.00,,,0.00,VWS V14.00,2013-01-30 15:51:00,
2013-01-30 10:56:00,49.8,48.7,29.79,NE,56,0.0,2.0,96,0.00,,,0.00,VWS V14.00,2013-01-30 15:56:00,
2013-01-30 11:00:00,49.9,48.5,29.79,NE,55,0.0,2.0,95,0.00,,CLR,0.00,VWS V14.00,2013-01-30 16:00:00,
2013-01-30 11:01:00,50.0,48.9,29.79,NE,56,0.0,0.0,96,0.00,,OVC013,0.00,VWS V14.00,2013-01-30 16:01:00,
2013-01-30 11:06:00,50.2,49.1,29.79,NNW,343,0.0,0.0,96,0.00,,OVC013,0.00,VWS V14.00,2013-01-30 16:06:00,
2013-01-30 11:11:00,50.6,49.5,29.79,NNW,342,0.0,0.0,96,0.00,,OVC013,0.00,VWS V14.00,2013-01-30 16:11:00,
2013-01-30 11:16:00,50.8,49.7,29.78,NNW,343,0.0,0.0,96,0.00,,OVC013,0.00,VWS V14.00,2013-01-30 16:16:00,
2013-01-30 11:21:00,51.1,50.0,29.77,NNW,342,0.0,0.0,96,0.00,,OVC013,0.00,VWS V14.00,2013-01-30 16:21:00,
2013-01-30 11:26:00,51.3,49.9,29.76,NE,44,0.0,0.0,95,0.00,,OVC013,0.00,VWS V14.00,2013-01-30 16:26:00,
2013-01-30 11:30:00,51.6,50.5,29.76,SW,217,1.0,3.0,96,0.00,,CLR,0.00,VWS V14.00,2013-01-30 16:30:00,
2013-01-30 11:32:00,52.0,50.9,29.76,SW,214,0.0,2.0,96,0.00,,OVC013,0.00,VWS V14.00,2013-01-30 16:32:00,
2013-01-30 11:37:00,52.6,51.5,29.75,SW,215,2.0,2.0,96,0.00,,OVC013,0.00,VWS V14.00,2013-01-30 16:37:00,
2013-01-30 11:42:00,53.7,52.6,29.74,WNW,288,3.0,3.0,96,0.00,,OVC013,0.00,VWS V14.00,2013-01-30 16:42:00,
2013-01-30 11:47:00,56.8,55.7,29.74,SSW,193,5.0,8.0,96,0.00,,OVC013,0.00,VWS V14.00,2013-01-30 16:47:00,
2013-01-30 11:52:00,58.4,57.3,29.73,SW,215,6.0,10.0,96,0.00,,OVC013,0.00,VWS V14.00,2013-01-30 16:52:00,
2013-01-30 11:57:00,59.6,57.3,29.73,SSW,193,9.0,11.0,92,0.00,,OVC013,0.00,VWS V14.00,2013-01-30 16:57:00,
2013-01-30 12:00:00,60.0,57.4,29.73,SW,214,5.0,12.0,91,0.00,,CLR,0.00,VWS V14.00,2013-01-30 17:00:00,
2013-01-30 12:02:00,60.4,57.5,29.73,SSW,195,7.0,10.0,90,0.00,,OVC015,0.00,VWS V14.00,2013-01-30 17:02:00,
2013-01-30 12:07:00,61.0,57.7,29.72,South,171,11.0,13.0,89,0.00,,OVC015,0.00,VWS V14.00,2013-01-30 17:07:00,
2013-01-30 12:12:00,61.5,57.6,29.72,SSW,203,6.0,13.0,87,0.00,,OVC015,0.00,VWS V14.00,2013-01-30 17:12:00,
2013-01-30 12:17:00,62.0,58.1,29.71,South,177,11.0,13.0,87,0.00,,OVC015,0.00,VWS V14.00,2013-01-30 17:17:00,
2013-01-30 12:23:00,62.5,58.3,29.71,SSW,204,11.0,16.0,86,0.00,,OVC015,0.00,VWS V14.00,2013-01-30 17:23:00,
2013-01-30 12:28:00,62.8,58.2,29.71,SSW,195,11.0,16.0,85,0.00,,OVC015,0.00,VWS V14.00,2013-01-30 17:28:00,
2013-01-30 12:30:00,62.9,58.3,29.71,SSW,192,7.0,16.0,85,0.00,,CLR,0.00,VWS V14.00,2013-01-30 17:30:00,
2013-01-30 12:33:00,63.2,58.6,29.70,SSW,200,8.0,11.0,85,0.00,,OVC015,0.00,VWS V14.00,2013-01-30 17:33:00,
2013-01-30 12:38:00,63.4,58.5,29.69,SSW,213,7.0,19.0,84,0.00,,OVC015,0.00,VWS V14.00,2013-01-30 17:38:00,
2013-01-30 12:43:00,63.6,58.7,29.69,SSW,193,6.0,19.0,84,0.00,,OVC015,0.00,VWS V14.00,2013-01-30 17:43:00,
2013-01-30 12:48:00,64.0,58.7,29.68,SW,214,5.0,19.0,83,0.00,,OVC015,0.00,VWS V14.00,2013-01-30 17:48:00,
2013-01-30 12:53:00,64.1,58.8,29.68,South,191,8.0,19.0,83,0.00,,OVC015,0.00,VWS V14.00,2013-01-30 17:53:00,
2013-01-30 12:58:00,64.2,58.9,29.68,SSW,204,6.0,19.0,83,0.00,,OVC015,0.00,VWS V14.00,2013-01-30 17:58:00,
2013-01-30 13:00:00,64.1,58.8,29.68,WSW,239,8.0,19.0,83,0.00,,CLR,0.00,VWS V14.00,2013-01-30 18:00:00,
2013-01-30 13:03:00,64.1,58.8,29.67,South,184,8.0,9.0,83,0.00,,OVC019,0.00,VWS V14.00,2013-01-30 18:03:00,
2013-01-30 13:09:00,64.3,59.0,29.66,SSW,203,7.0,10.0,83,0.00,,OVC019,0.00,VWS V14.00,2013-01-30 18:09:00,
2013-01-30 13:14:00,64.5,58.9,29.66,SSW,202,9.0,14.0,82,0.00,,OVC019,0.00,VWS V14.00,2013-01-30 18:14:00,
2013-01-30 13:19:00,64.7,59.1,29.66,SSW,194,8.0,17.0,82,0.00,,OVC019,0.00,VWS V14.00,2013-01-30 18:19:00,
2013-01-30 13:24:00,64.9,59.3,29.65,SSW,196,12.0,17.0,82,0.00,,OVC019,0.00,VWS V14.00,2013-01-30 18:24:00,
2013-01-30 13:29:00,65.0,59.0,29.65,SSW,213,7.0,17.0,81,0.00,,OVC019,0.00,VWS V14.00,2013-01-30 18:29:00,
2013-01-30 13:30:00,65.1,59.1,29.64,SSW,207,6.0,17.0,81,0.00,,CLR,0.00,VWS V14.00,2013-01-30 18:30:00,
2013-01-30 13:34:00,65.3,59.3,29.64,SW,229,17.0,21.0,81,0.00,,OVC019,0.00,VWS V14.00,2013-01-30 18:34:00,
2013-01-30 13:39:00,65.6,59.6,29.63,SSE,148,6.0,21.0,81,0.00,,OVC019,0.00,VWS V14.00,2013-01-30 18:39:00,
2013-01-30 13:44:00,65.7,59.4,29.64,SW,215,11.0,21.0,80,0.00,,OVC019,0.00,VWS V14.00,2013-01-30 18:44:00,
2013-01-30 13:49:00,65.7,59.4,29.64,South,183,12.0,22.0,80,0.00,,OVC019,0.00,VWS V14.00,2013-01-30 18:49:00,
2013-01-30 13:55:00,65.7,59.4,29.63,SSW,207,10.0,22.0,80,0.00,,OVC019,0.00,VWS V14.00,2013-01-30 18:55:00,
2013-01-30 14:00:00,65.8,59.5,29.63,South,184,9.0,12.0,80,0.00,,OVC019,0.00,VWS V14.00,2013-01-30 19:00:00,
2013-01-30 14:05:00,65.7,59.4,29.62,SSW,205,11.0,17.0,80,0.00,,-RA,0.00,VWS V14.00,2013-01-30 19:05:00,
2013-01-30 14:10:00,65.9,59.6,29.61,South,180,8.0,18.0,80,0.00,,-RA,0.00,VWS V14.00,2013-01-30 19:10:00,
2013-01-30 14:15:00,65.9,59.6,29.61,South,185,9.0,19.0,80,0.00,,-RA,0.00,VWS V14.00,2013-01-30 19:15:00,
2013-01-30 14:20:00,66.1,59.8,29.61,SW,217,13.0,19.0,80,0.00,,-RA,0.00,VWS V14.00,2013-01-30 19:20:00,
2013-01-30 14:25:00,66.2,59.9,29.61,SSW,208,8.0,20.0,80,0.00,,-RA,0.00,VWS V14.00,2013-01-30 19:25:00,
2013-01-30 14:30:00,66.4,60.0,29.61,SW,217,10.0,15.0,80,0.00,,-RA,0.00,VWS V14.00,2013-01-30 19:30:00,
2013-01-30 14:35:00,66.7,60.0,29.61,SSW,194,7.0,15.0,79,0.00,,OVC038,0.00,VWS V14.00,2013-01-30 19:35:00,
2013-01-30 14:40:00,66.6,59.9,29.61,SSW,200,9.0,18.0,79,0.00,,OVC038,0.00,VWS V14.00,2013-01-30 19:40:00,
2013-01-30 14:46:00,66.4,59.7,29.61,SSW,207,10.0,18.0,79,0.00,,OVC038,0.00,VWS V14.00,2013-01-30 19:46:00,
2013-01-30 14:51:00,66.5,59.8,29.61,SW,225,7.0,18.0,79,0.00,,OVC038,0.00,VWS V14.00,2013-01-30 19:51:00,
2013-01-30 14:56:00,66.4,59.7,29.61,SSW,198,10.0,18.0,79,0.00,,OVC038,0.00,VWS V14.00,2013-01-30 19:56:00,
2013-01-30 15:00:00,66.4,59.7,29.61,SW,221,8.0,18.0,79,0.00,,CLR,0.00,VWS V14.00,2013-01-30 20:00:00,
2013-01-30 15:01:00,66.4,59.7,29.61,SW,229,8.0,15.0,79,0.00,,OVC040,0.00,VWS V14.00,2013-01-30 20:01:00,
2013-01-30 15:06:00,66.3,59.6,29.61,South,173,6.0,15.0,79,0.00,,OVC040,0.00,VWS V14.00,2013-01-30 20:06:00,
2013-01-30 15:11:00,66.3,59.6,29.61,SSW,197,6.0,15.0,79,0.00,,OVC040,0.00,VWS V14.00,2013-01-30 20:11:00,
2013-01-30 15:16:00,66.3,59.6,29.61,SSW,205,10.0,15.0,79,0.00,,OVC040,0.00,VWS V14.00,2013-01-30 20:16:00,
2013-01-30 15:21:00,66.4,59.7,29.61,South,186,5.0,15.0,79,0.00,,OVC040,0.00,VWS V14.00,2013-01-30 20:21:00,
2013-01-30 15:26:00,66.4,59.7,29.60,South,177,15.0,15.0,79,0.00,,OVC040,0.00,VWS V14.00,2013-01-30 20:26:00,
2013-01-30 15:30:00,66.7,59.6,29.60,South,187,9.0,22.0,78,0.00,,CLR,0.00,VWS V14.00,2013-01-30 20:30:00,
2013-01-30 15:31:00,66.8,59.7,29.60,South,174,12.0,18.0,78,0.00,,OVC040,0.00,VWS V14.00,2013-01-30 20:31:00,
2013-01-30 15:36:00,66.9,59.8,29.60,SSW,200,13.0,18.0,78,0.00,,OVC040,0.00,VWS V14.00,2013-01-30 20:36:00,
2013-01-30 15:41:00,66.8,59.7,29.60,SSW,197,9.0,18.0,78,0.00,,OVC040,0.00,VWS V14.00,2013-01-30 20:41:00,
2013-01-30 15:46:00,66.9,59.5,29.60,SSW,198,7.0,18.0,77,0.00,,OVC040,0.00,VWS V14.00,2013-01-30 20:46:00,
2013-01-30 15:52:00,67.0,59.6,29.59,SW,229,13.0,18.0,77,0.00,,OVC040,0.00,VWS V14.00,2013-01-30 20:52:00,
2013-01-30 15:57:00,66.8,59.4,29.58,SW,218,5.0,18.0,77,0.00,,OVC040,0.00,VWS V14.00,2013-01-30 20:57:00,
2013-01-30 16:00:00,66.7,59.3,29.58,South,186,13.0,18.0,77,0.00,,CLR,0.00,VWS V14.00,2013-01-30 21:00:00,
2013-01-30 16:02:00,66.7,59.3,29.58,South,188,12.0,16.0,77,0.00,,OVC032,0.00,VWS V14.00,2013-01-30 21:02:00,
2013-01-30 16:07:00,66.5,59.1,29.58,South,169,7.0,16.0,77,0.00,,OVC032,0.00,VWS V14.00,2013-01-30 21:07:00,
2013-01-30 16:12:00,66.5,59.1,29.58,SSE,159,12.0,16.0,77,0.00,,OVC032,0.00,VWS V14.00,2013-01-30 21:12:00,
2013-01-30 16:17:00,66.5,59.1,29.58,SW,224,11.0,17.0,77,0.00,,OVC032,0.00,VWS V14.00,2013-01-30 21:17:00,
2013-01-30 16:22:00,66.6,59.2,29.57,SSE,162,10.0,17.0,77,0.00,,OVC032,0.00,VWS V14.00,2013-01-30 21:22:00,
2013-01-30 16:27:00,66.6,59.2,29.57,SSW,200,8.0,18.0,77,0.00,,OVC032,0.00,VWS V14.00,2013-01-30 21:27:00,
2013-01-30 16:30:00,66.5,59.1,29.57,South,186,11.0,18.0,77,0.00,,CLR,0.00,VWS V14.00,2013-01-30 21:30:00,
2013-01-30 16:32:00,66.6,59.2,29.57,South,188,6.0,20.0,77,0.00,,OVC032,0.00,VWS V14.00,2013-01-30 21:32:00,
2013-01-30 16:37:00,66.6,59.2,29.57,SSE,166,9.0,20.0,77,0.00,,OVC032,0.00,VWS V14.00,2013-01-30 21:37:00,
2013-01-30 16:42:00,66.6,59.2,29.57,South,177,12.0,20.0,77,0.00,,OVC032,0.00,VWS V14.00,2013-01-30 21:42:00,
2013-01-30 16:47:00,66.7,58.9,29.57,SW,218,8.0,20.0,76,0.00,,OVC032,0.00,VWS V14.00,2013-01-30 21:47:00,
2013-01-30 16:52:00,66.7,58.9,29.57,SSW,194,16.0,20.0,76,0.00,,OVC032,0.00,VWS V14.00,2013-01-30 21:52:00,
2013-01-30 16:57:00,66.8,59.0,29.57,South,190,11.0,20.0,76,0.00,,OVC032,0.00,VWS V14.00,2013-01-30 21:57:00,
2013-01-30 17:00:00,66.8,59.0,29.57,WSW,249,6.0,20.0,76,0.00,,CLR,0.00,VWS V14.00,2013-01-30 22:00:00,
2013-01-30 17:02:00,66.7,58.9,29.57,South,186,7.0,13.0,76,0.00,,OVC032,0.00,VWS V14.00,2013-01-30 22:02:00,
2013-01-30 17:07:00,66.8,59.0,29.57,SSE,160,12.0,17.0,76,0.00,,OVC032,0.00,VWS V14.00,2013-01-30 22:07:00,
2013-01-30 17:13:00,66.8,59.0,29.57,SW,226,7.0,17.0,76,0.00,,OVC032,0.00,VWS V14.00,2013-01-30 22:13:00,
2013-01-30 17:18:00,66.9,58.7,29.56,SSW,205,7.0,17.0,75,0.00,,OVC032,0.00,VWS V14.00,2013-01-30 22:18:00,
2013-01-30 17:23:00,66.8,58.6,29.56,SW,229,9.0,17.0,75,0.00,,OVC032,0.00,VWS V14.00,2013-01-30 22:23:00,
2013-01-30 17:28:00,66.6,58.4,29.57,WSW,242,8.0,17.0,75,0.00,,OVC032,0.00,VWS V14.00,2013-01-30 22:28:00,
2013-01-30 17:30:00,66.6,58.8,29.57,SW,215,5.0,17.0,76,0.00,,CLR,0.00,VWS V14.00,2013-01-30 22:30:00,
2013-01-30 17:33:00,66.6,58.4,29.57,SSE,152,5.0,8.0,75,0.00,,OVC032,0.00,VWS V14.00,2013-01-30 22:33:00,
2013-01-30 17:38:00,66.7,58.5,29.58,SSW,203,4.0,13.0,75,0.00,,OVC032,0.00,VWS V14.00,2013-01-30 22:38:00,
2013-01-30 17:43:00,66.6,58.4,29.58,SW,221,4.0,14.0,75,0.00,,OVC032,0.00,VWS V14.00,2013-01-30 22:43:00,
2013-01-30 17:48:00,66.4,58.6,29.59,West,269,8.0,14.0,76,0.00,,OVC032,0.00,VWS V14.00,2013-01-30 22:48:00,
2013-01-30 17:53:00,66.3,58.5,29.59,SW,226,4.0,14.0,76,0.00,,OVC032,0.00,VWS V14.00,2013-01-30 22:53:00,
2013-01-30 17:58:00,66.0,58.6,29.59,SSW,208,4.0,14.0,77,0.00,,OVC032,0.00,VWS V14.00,2013-01-30 22:58:00,
2013-01-30 18:00:00,66.0,58.6,29.59,WSW,255,9.0,14.0,77,0.00,,CLR,0.00,VWS V14.00,2013-01-30 23:00:00,
2013-01-30 18:03:00,65.8,58.8,29.59,WNW,295,9.0,12.0,78,0.00,,OVC030,0.00,VWS V14.00,2013-01-30 23:03:00,
2013-01-30 18:08:00,65.3,58.3,29.59,ESE,110,2.0,12.0,78,0.00,,OVC030,0.00,VWS V14.00,2013-01-30 23:08:00,
2013-01-30 18:13:00,64.9,58.2,29.59,SSW,200,2.0,12.0,79,0.00,,-RA,0.00,VWS V14.00,2013-01-30 23:13:00,
2013-01-30 18:19:00,64.5,58.5,29.59,West,260,3.0,12.0,81,0.00,,-RA,0.00,VWS V14.00,2013-01-30 23:19:00,
2013-01-30 18:24:00,63.7,58.1,29.59,NW,321,3.0,12.0,82,0.00,,-RA,0.00,VWS V14.00,2013-01-30 23:24:00,
2013-01-30 18:29:00,62.9,58.0,29.58,NW,320,2.0,12.0,84,0.00,,-RA,0.00,VWS V14.00,2013-01-30 23:29:00,
2013-01-30 18:30:00,62.8,58.2,29.58,NNW,338,2.0,12.0,85,0.00,,CLR,0.00,VWS V14.00,2013-01-30 23:30:00,
2013-01-30 18:34:00,62.3,58.1,29.58,NW,314,2.0,2.0,86,0.00,,-RA,0.00,VWS V14.00,2013-01-30 23:34:00,
2013-01-30 18:39:00,61.9,57.7,29.58,NW,315,0.0,2.0,86,0.00,,-RA,0.00,VWS V14.00,2013-01-30 23:39:00,
2013-01-30 18:44:00,61.5,57.6,29.58,NW,315,0.0,2.0,87,0.00,,-RA,0.00,VWS V14.00,2013-01-30 23:44:00,
2013-01-30 18:49:00,61.2,57.6,29.58,NW,315,0.0,2.0,88,0.00,,-RA,0.00,VWS V14.00,2013-01-30 23:49:00,
2013-01-30 18:54:00,60.9,57.3,29.58,NW,315,0.0,2.0,88,0.00,,-RA,0.00,VWS V14.00,2013-01-30 23:54:00,
2013-01-30 18:59:00,60.6,57.3,29.57,NW,315,0.0,2.0,89,0.00,,-RA,0.00,VWS V14.00,2013-01-30 23:59:00,
2013-01-30 19:00:00,60.6,57.3,29.58,NW,315,0.0,2.0,89,0.00,,CLR,0.00,VWS V14.00,2013-01-31 00:00:00,
2013-01-30 19:04:00,60.1,56.8,29.58,SSW,208,0.0,0.0,89,0.00,,-RA,0.00,VWS V14.00,2013-01-31 00:04:00,
2013-01-30 19:09:00,59.8,56.9,29.58,SSW,208,0.0,0.0,90,0.00,,-RA,0.00,VWS V14.00,2013-01-31 00:09:00,
2013-01-30 19:14:00,59.6,57.0,29.57,SSW,208,0.0,0.0,91,0.00,,-RA,0.00,VWS V14.00,2013-01-31 00:14:00,
2013-01-30 19:19:00,59.3,56.7,29.57,SSW,208,0.0,0.0,91,0.01,,-RA,0.01,VWS V14.00,2013-01-31 00:19:00,
2013-01-30 19:24:00,59.2,56.6,29.57,SSW,208,0.0,0.0,91,0.01,,-RA,0.01,VWS V14.00,2013-01-31 00:24:00,
2013-01-30 19:29:00,59.0,56.7,29.57,SSW,208,0.0,0.0,92,0.01,,-RA,0.01,VWS V14.00,2013-01-31 00:29:00,
2013-01-30 19:30:00,59.0,56.7,29.57,SSW,208,0.0,0.0,92,0.01,,CLR,0.01,VWS V14.00,2013-01-31 00:30:00,
2013-01-30 19:34:00,58.3,55.7,29.56,SW,234,0.0,0.0,91,0.01,,-RA,0.01,VWS V14.00,2013-01-31 00:34:00,
2013-01-30 19:40:00,58.3,56.3,29.56,SW,233,0.0,0.0,93,0.01,,-RA,0.01,VWS V14.00,2013-01-31 00:40:00,
2013-01-30 19:45:00,58.0,55.7,29.56,SSE,165,0.0,0.0,92,0.01,,-RA,0.01,VWS V14.00,2013-01-31 00:45:00,
2013-01-30 19:50:00,57.9,55.9,29.55,SSE,165,0.0,0.0,93,0.01,,-RA,0.01,VWS V14.00,2013-01-31 00:50:00,
2013-01-30 19:55:00,57.8,55.8,29.54,SSE,165,0.0,0.0,93,0.01,,-RA,0.01,VWS V14.00,2013-01-31 00:55:00,
2013-01-30 20:00:00,57.7,55.7,29.55,SSE,165,0.0,0.0,93,0.01,,-RA,0.01,VWS V14.00,2013-01-31 01:00:00,
2013-01-30 20:05:00,57.5,55.5,29.54,SSE,165,0.0,0.0,93,0.01,,-RA,0.01,VWS V14.00,2013-01-31 01:05:00,
2013-01-30 20:10:00,57.3,55.3,29.53,SSE,165,0.0,0.0,93,0.01,,-RA,0.01,VWS V14.00,2013-01-31 01:10:00,
2013-01-30 20:15:00,57.3,55.6,29.53,SSE,165,0.0,0.0,94,0.01,,-RA,0.01,VWS V14.00,2013-01-31 01:15:00,
2013-01-30 20:20:00,57.2,55.5,29.53,SSE,165,0.0,0.0,94,0.01,,-RA,0.01,VWS V14.00,2013-01-31 01:20:00,
2013-01-30 20:25:00,57.1,55.4,29.51,SSE,165,0.0,0.0,94,0.01,,-RA,0.01,VWS V14.00,2013-01-31 01:25:00,
2013-01-30 20:30:00,56.4,54.4,29.52,West,271,0.0,0.0,93,0.00,,-RA,0.01,VWS V14.00,2013-01-31 01:30:00,
2013-01-30 20:36:00,56.6,55.2,29.52,West,278,0.0,0.0,95,0.00,,-RA,0.01,VWS V14.00,2013-01-31 01:36:00,
2013-01-30 20:41:00,56.4,54.7,29.51,West,278,0.0,0.0,94,0.00,,-RA,0.01,VWS V14.00,2013-01-31 01:41:00,
2013-01-30 20:46:00,56.5,54.8,29.51,West,278,0.0,0.0,94,0.00,,-RA,0.01,VWS V14.00,2013-01-31 01:46:00,
2013-01-30 20:51:00,56.1,54.4,29.50,West,278,0.0,0.0,94,0.00,,-RA,0.01,VWS V14.00,2013-01-31 01:51:00,
2013-01-30 20:56:00,55.9,54.2,29.50,West,278,0.0,0.0,94,0.00,,-RA,0.01,VWS V14.00,2013-01-31 01:56:00,
2013-01-30 21:00:00,55.7,54.0,29.49,West,278,0.0,0.0,94,0.00,,CLR,0.01,VWS V14.00,2013-01-31 02:00:00,
2013-01-30 21:01:00,55.8,54.1,29.49,West,278,0.0,0.0,94,0.00,,OVC020,0.01,VWS V14.00,2013-01-31 02:01:00,
2013-01-30 21:06:00,55.9,54.5,29.49,West,278,0.0,0.0,95,0.00,,OVC020,0.01,VWS V14.00,2013-01-31 02:06:00,
2013-01-30 21:11:00,55.9,54.5,29.49,West,278,0.0,0.0,95,0.00,,OVC020,0.01,VWS V14.00,2013-01-31 02:11:00,
2013-01-30 21:16:00,55.6,53.9,29.49,West,278,0.0,0.0,94,0.00,,OVC020,0.01,VWS V14.00,2013-01-31 02:16:00,
2013-01-30 21:21:00,55.5,54.1,29.48,West,278,0.0,0.0,95,0.00,,OVC020,0.01,VWS V14.00,2013-01-31 02:21:00,
2013-01-30 21:26:00,55.7,54.3,29.47,West,278,0.0,0.0,95,0.00,,OVC020,0.01,VWS V14.00,2013-01-31 02:26:00,
2013-01-30 21:30:00,55.9,54.5,29.46,West,278,0.0,0.0,95,0.00,,CLR,0.01,VWS V14.00,2013-01-31 02:30:00,
2013-01-30 21:32:00,55.9,54.5,29.46,West,262,0.0,1.0,95,0.00,,OVC020,0.01,VWS V14.00,2013-01-31 02:32:00,
2013-01-30 21:37:00,55.8,54.4,29.46,South,188,3.0,4.0,95,0.00,,OVC020,0.01,VWS V14.00,2013-01-31 02:37:00,
2013-01-30 21:42:00,57.1,56.0,29.45,South,190,7.0,8.0,96,0.00,,OVC020,0.01,VWS V14.00,2013-01-31 02:42:00,
2013-01-30 21:47:00,58.1,56.4,29.44,South,183,9.0,10.0,94,0.00,,OVC020,0.01,VWS V14.00,2013-01-31 02:47:00,
2013-01-30 21:52:00,59.0,56.7,29.44,South,188,6.0,10.0,92,0.00,,OVC020,0.01,VWS V14.00,2013-01-31 02:52:00,
2013-01-30 21:57:00,59.7,57.1,29.44,SSW,195,7.0,12.0,91,0.00,,OVC020,0.01,VWS V14.00,2013-01-31 02:57:00,
2013-01-30 22:00:00,59.9,57.3,29.44,SSW,204,5.0,12.0,91,0.00,,CLR,0.01,VWS V14.00,2013-01-31 03:00:00,
2013-01-30 22:02:00,60.1,57.2,29.43,South,174,9.0,10.0,90,0.01,,-RA,0.02,VWS V14.00,2013-01-31 03:02:00,
2013-01-30 22:07:00,60.3,57.4,29.43,SSE,152,7.0,11.0,90,0.02,,-RA,0.03,VWS V14.00,2013-01-31 03:07:00,
2013-01-30 22:12:00,60.4,57.5,29.42,SSW,203,7.0,13.0,90,0.02,,-RA,0.03,VWS V14.00,2013-01-31 03:12:00,
2013-01-30 22:17:00,60.4,57.5,29.42,South,174,8.0,13.0,90,0.02,,-RA,0.03,VWS V14.00,2013-01-31 03:17:00,
2013-01-30 22:22:00,60.5,57.6,29.41,SSE,166,9.0,13.0,90,0.02,,-RA,0.03,VWS V14.00,2013-01-31 03:22:00,
2013-01-30 22:27:00,60.8,57.5,29.41,SSW,195,10.0,16.0,89,0.02,,-RA,0.03,VWS V14.00,2013-01-31 03:27:00,
2013-01-30 22:30:00,60.9,57.6,29.41,SW,215,10.0,16.0,89,0.02,,CLR,0.03,VWS V14.00,2013-01-31 03:30:00,
2013-01-30 22:33:00,61.2,57.9,29.40,SSW,203,8.0,16.0,89,0.02,,-RA,0.03,VWS V14.00,2013-01-31 03:33:00,
2013-01-30 22:38:00,61.5,57.9,29.40,SW,215,9.0,16.0,88,0.02,,-RA,0.03,VWS V14.00,2013-01-31 03:38:00,
2013-01-30 22:43:00,61.7,58.1,29.40,SW,223,11.0,16.0,88,0.02,,-RA,0.03,VWS V14.00,2013-01-31 03:43:00,
2013-01-30 22:48:00,61.7,58.1,29.40,SE,143,12.0,16.0,88,0.02,,-RA,0.03,VWS V14.00,2013-01-31 03:48:00,
2013-01-30 22:53:00,61.7,58.1,29.39,South,190,11.0,19.0,88,0.02,,-RA,0.03,VWS V14.00,2013-01-31 03:53:00,
2013-01-30 22:58:00,61.7,57.8,29.39,SSE,167,11.0,22.0,87,0.02,,-RA,0.03,VWS V14.00,2013-01-31 03:58:00,
2013-01-30 23:00:00,61.8,58.2,29.39,SSE,160,10.0,22.0,88,0.02,,CLR,0.03,VWS V14.00,2013-01-31 04:00:00,
2013-01-30 23:03:00,61.7,58.1,29.38,SSW,200,14.0,17.0,88,0.02,,OVC018,0.03,VWS V14.00,2013-01-31 04:03:00,
2013-01-30 23:08:00,61.5,57.9,29.38,SSW,204,7.0,17.0,88,0.02,,OVC018,0.03,VWS V14.00,2013-01-31 04:08:00,
2013-01-30 23:13:00,61.3,58.0,29.38,SSW,204,8.0,17.0,89,0.02,,OVC018,0.03,VWS V14.00,2013-01-31 04:13:00,
2013-01-30 23:18:00,61.1,57.8,29.38,SW,214,4.0,17.0,89,0.02,,OVC018,0.03,VWS V14.00,2013-01-31 04:18:00,
2013-01-30 23:23:00,61.0,57.7,29.37,SSW,193,9.0,17.0,89,0.02,,OVC018,0.03,VWS V14.00,2013-01-31 04:23:00,
2013-01-30 23:28:00,60.8,57.8,29.37,SSW,208,7.0,17.0,90,0.02,,OVC018,0.03,VWS V14.00,2013-01-31 04:28:00,
2013-01-30 23:30:00,60.7,57.8,29.37,SSW,203,6.0,17.0,90,0.02,,CLR,0.03,VWS V14.00,2013-01-31 04:30:00,
2013-01-30 23:33:00,60.5,57.9,29.36,SSW,201,2.0,11.0,91,0.00,,-RA,0.03,VWS V14.00,2013-01-31 04:33:00,
2013-01-30 23:39:00,60.3,57.7,29.36,South,181,7.0,14.0,91,0.01,,-RA,0.04,VWS V14.00,2013-01-31 04:39:00,
2013-01-30 23:44:00,60.0,57.7,29.36,South,184,8.0,14.0,92,0.02,,-RA,0.05,VWS V14.00,2013-01-31 04:44:00,
2013-01-30 23:49:00,59.9,57.6,29.35,SSW,204,6.0,14.0,92,0.07,,-RA,0.10,VWS V14.00,2013-01-31 04:49:00,
2013-01-30 23:54:00,59.8,57.5,29.34,South,170,5.0,14.0,92,0.08,,-RA,0.11,VWS V14.00,2013-01-31 04:54:00,
2013-01-30 23:59:00,59.7,57.7,29.34,SW,229,4.0,14.0,93,0.09,,-RA,0.12,VWS V14.00,2013-01-31 04:59:00,